sensor_id;sensor_type;location;lat;lon;timestamp;pressure;altitude;pressure_sealevel;temperature;humidity
26978;BME280;56314;48.088;11.642;2024-03-23T00:53:33;94860.94;;;10.15;67.73
26978;BME280;56314;48.088;11.642;2024-03-23T00:55:59;94861.31;;;10.11;68.28
26978;BME280;56314;48.088;11.642;2024-03-23T00:58:24;94855.06;;;10.02;69.19
26978;BME280;56314;48.088;11.642;2024-03-23T01:00:49;94845.78;;;9.98;68.65
26978;BME280;56314;48.088;11.642;2024-03-23T01:03:15;94842.69;;;9.93;68.62
26978;BME280;56314;48.088;11.642;2024-03-23T01:05:40;94840.22;;;9.91;69.47
26978;BME280;56314;48.088;11.642;2024-03-23T01:08:06;94840.44;;;9.88;69.25
26978;BME280;56314;48.088;11.642;2024-03-23T01:10:31;94828.69;;;9.82;69.90
26978;BME280;56314;48.088;11.642;2024-03-23T01:12:56;94824.78;;;9.77;70.32
26978;BME280;56314;48.088;11.642;2024-03-23T01:15:22;94828.75;;;9.71;70.47
26978;BME280;56314;48.088;11.642;2024-03-23T01:17:47;94824.84;;;9.65;71.19
26978;BME280;56314;48.088;11.642;2024-03-23T01:20:13;94823.69;;;9.58;71.35
26978;BME280;56314;48.088;11.642;2024-03-23T01:22:38;94816.47;;;9.50;71.49
26978;BME280;56314;48.088;11.642;2024-03-23T01:25:03;94815.50;;;9.51;71.46
26978;BME280;56314;48.088;11.642;2024-03-23T01:27:29;94820.03;;;9.49;71.26
26978;BME280;56314;48.088;11.642;2024-03-23T01:29:54;94821.13;;;9.47;70.75
26978;BME280;56314;48.088;11.642;2024-03-23T01:32:20;94819.00;;;9.40;70.29
26978;BME280;56314;48.088;11.642;2024-03-23T01:34:45;94815.56;;;9.40;70.52
26978;BME280;56314;48.088;11.642;2024-03-23T01:37:11;94813.38;;;9.45;69.47
26978;BME280;56314;48.088;11.642;2024-03-23T01:39:36;94816.47;;;9.50;69.25
26978;BME280;56314;48.088;11.642;2024-03-23T01:42:02;94808.59;;;9.50;69.21
26978;BME280;56314;48.088;11.642;2024-03-23T01:44:27;94811.78;;;9.54;68.88
26978;BME280;56314;48.088;11.642;2024-03-23T01:46:53;94809.31;;;9.52;69.01
26978;BME280;56314;48.088;11.642;2024-03-23T01:49:18;94805.84;;;9.52;68.71
26978;BME280;56314;48.088;11.642;2024-03-23T01:51:44;94805.03;;;9.51;68.31
26978;BME280;56314;48.088;11.642;2024-03-23T01:54:10;94799.91;;;9.50;68.22
26978;BME280;56314;48.088;11.642;2024-03-23T01:56:35;94798.50;;;9.46;68.54
26978;BME280;56314;48.088;11.642;2024-03-23T01:59:05;94799.44;;;9.45;68.45
26978;BME280;56314;48.088;11.642;2024-03-23T02:01:31;94794.22;;;9.45;69.03
26978;BME280;56314;48.088;11.642;2024-03-23T02:03:57;94786.72;;;9.40;68.87
26978;BME280;56314;48.088;11.642;2024-03-23T02:06:24;94787.69;;;9.39;70.04
26978;BME280;56314;48.088;11.642;2024-03-23T02:08:50;94781.97;;;9.34;69.42
26978;BME280;56314;48.088;11.642;2024-03-23T02:11:15;94780.78;;;9.38;69.78
26978;BME280;56314;48.088;11.642;2024-03-23T02:13:41;94776.16;;;9.30;69.15
26978;BME280;56314;48.088;11.642;2024-03-23T02:16:06;94776.06;;;9.32;68.46
26978;BME280;56314;48.088;11.642;2024-03-23T02:18:35;94770.50;;;9.25;68.88
26978;BME280;56314;48.088;11.642;2024-03-23T02:21:00;94774.16;;;9.22;69.15
26978;BME280;56314;48.088;11.642;2024-03-23T02:23:26;94767.66;;;9.17;69.32
26978;BME280;56314;48.088;11.642;2024-03-23T02:25:51;94773.75;;;9.17;68.98
26978;BME280;56314;48.088;11.642;2024-03-23T02:28:18;94761.00;;;9.13;70.16
26978;BME280;56314;48.088;11.642;2024-03-23T02:30:43;94759.72;;;9.07;70.33
26978;BME280;56314;48.088;11.642;2024-03-23T02:33:09;94765.22;;;9.04;70.40
26978;BME280;56314;48.088;11.642;2024-03-23T02:35:34;94759.34;;;9.12;69.68
26978;BME280;56314;48.088;11.642;2024-03-23T02:37:59;94754.03;;;9.02;69.73
26978;BME280;56314;48.088;11.642;2024-03-23T02:40:25;94748.91;;;9.00;69.43
26978;BME280;56314;48.088;11.642;2024-03-23T02:42:51;94739.06;;;8.92;69.81
26978;BME280;56314;48.088;11.642;2024-03-23T02:45:16;94746.69;;;8.84;70.15
26978;BME280;56314;48.088;11.642;2024-03-23T02:47:42;94736.47;;;8.81;70.95
26978;BME280;56314;48.088;11.642;2024-03-23T02:50:08;94733.28;;;8.77;70.78
26978;BME280;56314;48.088;11.642;2024-03-23T02:52:34;94732.44;;;8.77;70.70
26978;BME280;56314;48.088;11.642;2024-03-23T02:54:59;94734.34;;;8.75;70.90
26978;BME280;56314;48.088;11.642;2024-03-23T02:57:24;94730.34;;;8.71;70.78
26978;BME280;56314;48.088;11.642;2024-03-23T02:59:50;94733.44;;;8.65;71.79
26978;BME280;56314;48.088;11.642;2024-03-23T03:02:15;94729.72;;;8.67;71.70
26978;BME280;56314;48.088;11.642;2024-03-23T03:04:41;94732.94;;;8.71;70.96
26978;BME280;56314;48.088;11.642;2024-03-23T03:07:06;94725.34;;;8.68;71.21
26978;BME280;56314;48.088;11.642;2024-03-23T03:09:32;94725.81;;;8.61;71.61
26978;BME280;56314;48.088;11.642;2024-03-23T03:11:58;94727.97;;;8.56;72.43
26978;BME280;56314;48.088;11.642;2024-03-23T03:14:23;94716.66;;;8.56;71.84
26978;BME280;56314;48.088;11.642;2024-03-23T03:16:48;94720.84;;;8.58;71.73
26978;BME280;56314;48.088;11.642;2024-03-23T03:19:14;94711.56;;;8.54;72.11
26978;BME280;56314;48.088;11.642;2024-03-23T03:21:41;94714.66;;;8.59;71.15
26978;BME280;56314;48.088;11.642;2024-03-23T03:24:07;94708.72;;;8.57;71.12
26978;BME280;56314;48.088;11.642;2024-03-23T03:26:32;94705.25;;;8.57;70.95
26978;BME280;56314;48.088;11.642;2024-03-23T03:28:57;94710.47;;;8.57;70.96
26978;BME280;56314;48.088;11.642;2024-03-23T03:31:23;94706.47;;;8.53;71.24
26978;BME280;56314;48.088;11.642;2024-03-23T03:33:49;94704.09;;;8.50;71.65
26978;BME280;56314;48.088;11.642;2024-03-23T03:36:15;94695.63;;;8.46;71.57
26978;BME280;56314;48.088;11.642;2024-03-23T03:38:40;94694.56;;;8.49;71.33
26978;BME280;56314;48.088;11.642;2024-03-23T03:41:06;94684.94;;;8.49;71.70
26978;BME280;56314;48.088;11.642;2024-03-23T03:43:31;94684.94;;;8.49;71.99
26978;BME280;56314;48.088;11.642;2024-03-23T03:45:58;94691.81;;;8.50;71.44
26978;BME280;56314;48.088;11.642;2024-03-23T03:48:24;94684.69;;;8.52;71.59
26978;BME280;56314;48.088;11.642;2024-03-23T03:50:49;94684.81;;;8.51;71.84
26978;BME280;56314;48.088;11.642;2024-03-23T03:53:15;94676.97;;;8.51;71.44
26978;BME280;56314;48.088;11.642;2024-03-23T03:55:42;94677.41;;;8.56;70.98
26978;BME280;56314;48.088;11.642;2024-03-23T03:58:07;94677.41;;;8.56;71.79
26978;BME280;56314;48.088;11.642;2024-03-23T04:00:33;94669.00;;;8.52;72.45
26978;BME280;56314;48.088;11.642;2024-03-23T04:02:58;94662.44;;;8.46;72.65
26978;BME280;56314;48.088;11.642;2024-03-23T04:05:23;94668.03;;;8.42;73.06
26978;BME280;56314;48.088;11.642;2024-03-23T04:07:49;94661.50;;;8.36;73.90
26978;BME280;56314;48.088;11.642;2024-03-23T04:10:14;94656.75;;;8.30;74.89
26978;BME280;56314;48.088;11.642;2024-03-23T04:12:40;94657.13;;;8.25;74.45
26978;BME280;56314;48.088;11.642;2024-03-23T04:15:06;94646.94;;;8.22;74.24
26978;BME280;56314;48.088;11.642;2024-03-23T04:17:32;94650.84;;;8.28;73.20
26978;BME280;56314;48.088;11.642;2024-03-23T04:19:59;94651.41;;;8.31;72.74
26978;BME280;56314;48.088;11.642;2024-03-23T04:22:25;94645.59;;;8.39;72.06
26978;BME280;56314;48.088;11.642;2024-03-23T04:24:53;94638.88;;;8.46;71.70
26978;BME280;56314;48.088;11.642;2024-03-23T04:27:18;94628.53;;;8.56;71.04
26978;BME280;56314;48.088;11.642;2024-03-23T04:29:47;94624.69;;;8.60;70.21
26978;BME280;56314;48.088;11.642;2024-03-23T04:32:13;94621.03;;;8.63;69.71
26978;BME280;56314;48.088;11.642;2024-03-23T04:34:39;94618.72;;;8.70;68.79
26978;BME280;56314;48.088;11.642;2024-03-23T04:37:04;94609.53;;;8.75;68.35
26978;BME280;56314;48.088;11.642;2024-03-23T04:39:29;94608.44;;;8.78;68.17
26978;BME280;56314;48.088;11.642;2024-03-23T04:41:55;94606.03;;;8.86;67.24
26978;BME280;56314;48.088;11.642;2024-03-23T04:44:20;94604.28;;;8.97;66.33
26978;BME280;56314;48.088;11.642;2024-03-23T04:46:46;94598.00;;;8.99;66.46
26978;BME280;56314;48.088;11.642;2024-03-23T04:49:11;94593.06;;;9.06;65.65
26978;BME280;56314;48.088;11.642;2024-03-23T04:51:37;94589.75;;;9.04;65.65
26978;BME280;56314;48.088;11.642;2024-03-23T04:54:03;94593.19;;;9.04;65.49
26978;BME280;56314;48.088;11.642;2024-03-23T04:56:29;94585.59;;;9.01;65.13
26978;BME280;56314;48.088;11.642;2024-03-23T04:58:54;94581.88;;;9.04;64.72
26978;BME280;56314;48.088;11.642;2024-03-23T05:01:20;94578.19;;;9.06;64.41
26978;BME280;56314;48.088;11.642;2024-03-23T05:03:45;94569.50;;;9.06;64.35
26978;BME280;56314;48.088;11.642;2024-03-23T05:06:10;94564.25;;;9.06;64.84
26978;BME280;56314;48.088;11.642;2024-03-23T05:08:36;94553.34;;;9.01;64.77
26978;BME280;56314;48.088;11.642;2024-03-23T05:11:01;94556.91;;;9.00;64.29
26978;BME280;56314;48.088;11.642;2024-03-23T05:13:27;94548.81;;;9.03;64.06
26978;BME280;56314;48.088;11.642;2024-03-23T05:15:53;94544.78;;;8.99;63.82
26978;BME280;56314;48.088;11.642;2024-03-23T05:18:19;94548.34;;;8.98;63.63
26978;BME280;56314;48.088;11.642;2024-03-23T05:20:44;94555.63;;;8.94;64.36
26978;BME280;56314;48.088;11.642;2024-03-23T05:23:10;94544.22;;;8.95;63.74
26978;BME280;56314;48.088;11.642;2024-03-23T05:25:35;94540.81;;;9.04;63.06
26978;BME280;56314;48.088;11.642;2024-03-23T05:28:00;94542.06;;;9.10;62.75
26978;BME280;56314;48.088;11.642;2024-03-23T05:30:26;94547.44;;;9.08;62.82
26978;BME280;56314;48.088;11.642;2024-03-23T05:32:51;94544.69;;;9.10;62.85
26978;BME280;56314;48.088;11.642;2024-03-23T05:35:16;94550.63;;;9.12;62.81
26978;BME280;56314;48.088;11.642;2024-03-23T05:37:42;94539.19;;;9.13;63.05
26978;BME280;56314;48.088;11.642;2024-03-23T05:40:07;94547.06;;;9.13;63.75
26978;BME280;56314;48.088;11.642;2024-03-23T05:42:34;94543.47;;;9.14;63.56
26978;BME280;56314;48.088;11.642;2024-03-23T05:44:59;94545.97;;;9.16;63.68
26978;BME280;56314;48.088;11.642;2024-03-23T05:47:25;94540.47;;;9.19;63.20
26978;BME280;56314;48.088;11.642;2024-03-23T05:49:50;94542.69;;;9.23;63.03
26978;BME280;56314;48.088;11.642;2024-03-23T05:52:17;94537.19;;;9.27;63.01
26978;BME280;56314;48.088;11.642;2024-03-23T05:54:42;94530.44;;;9.34;62.38
26978;BME280;56314;48.088;11.642;2024-03-23T05:57:09;94534.94;;;9.43;61.80
26978;BME280;56314;48.088;11.642;2024-03-23T05:59:34;94530.53;;;9.63;60.31
26978;BME280;56314;48.088;11.642;2024-03-23T06:02:00;94522.47;;;9.86;59.31
26978;BME280;56314;48.088;11.642;2024-03-23T06:04:25;94524.28;;;10.15;58.26
26978;BME280;56314;48.088;11.642;2024-03-23T06:06:51;94515.75;;;10.42;57.47
26978;BME280;56314;48.088;11.642;2024-03-23T06:09:20;94508.41;;;10.66;56.17
26978;BME280;56314;48.088;11.642;2024-03-23T06:11:45;94511.66;;;10.97;55.58
26978;BME280;56314;48.088;11.642;2024-03-23T06:14:11;94504.25;;;11.20;53.98
26978;BME280;56314;48.088;11.642;2024-03-23T06:16:36;94496.28;;;11.40;52.88
26978;BME280;56314;48.088;11.642;2024-03-23T06:19:02;94492.19;;;11.55;52.33
26978;BME280;56314;48.088;11.642;2024-03-23T06:21:29;94493.50;;;11.69;52.07
26978;BME280;56314;48.088;11.642;2024-03-23T06:23:54;94484.81;;;11.87;51.88
26978;BME280;56314;48.088;11.642;2024-03-23T06:26:20;94478.59;;;12.06;51.49
26978;BME280;56314;48.088;11.642;2024-03-23T06:28:47;94472.75;;;12.30;51.21
26978;BME280;56314;48.088;11.642;2024-03-23T06:31:13;94467.00;;;12.53;49.73
26978;BME280;56314;48.088;11.642;2024-03-23T06:33:38;94459.09;;;12.80;48.58
26978;BME280;56314;48.088;11.642;2024-03-23T06:36:05;94453.97;;;13.04;48.03
26978;BME280;56314;48.088;11.642;2024-03-23T06:38:30;94446.34;;;13.28;47.74
26978;BME280;56314;48.088;11.642;2024-03-23T06:40:56;94444.00;;;13.59;46.63
26978;BME280;56314;48.088;11.642;2024-03-23T06:43:21;94430.91;;;13.92;46.93
26978;BME280;56314;48.088;11.642;2024-03-23T06:45:55;94421.66;;;14.21;45.10
26978;BME280;56314;48.088;11.642;2024-03-23T06:48:21;94412.06;;;14.61;44.62
26978;BME280;56314;48.088;11.642;2024-03-23T06:50:47;94390.28;;;14.59;44.83
26978;BME280;56314;48.088;11.642;2024-03-23T06:53:13;94391.97;;;14.03;45.00
26978;BME280;56314;48.088;11.642;2024-03-23T06:55:38;94397.22;;;13.69;46.39
26978;BME280;56314;48.088;11.642;2024-03-23T06:58:04;94391.66;;;14.06;46.14
26978;BME280;56314;48.088;11.642;2024-03-23T07:00:30;94390.94;;;14.70;44.96
26978;BME280;56314;48.088;11.642;2024-03-23T07:02:55;94379.44;;;15.42;43.77
26978;BME280;56314;48.088;11.642;2024-03-23T07:05:21;94387.06;;;16.00;42.85
26978;BME280;56314;48.088;11.642;2024-03-23T07:07:46;94368.41;;;16.55;41.07
26978;BME280;56314;48.088;11.642;2024-03-23T07:10:11;94376.28;;;16.93;40.26
26978;BME280;56314;48.088;11.642;2024-03-23T07:12:37;94358.97;;;17.42;40.12
26978;BME280;56314;48.088;11.642;2024-03-23T07:15:02;94361.06;;;17.83;38.84
26978;BME280;56314;48.088;11.642;2024-03-23T07:17:28;94362.53;;;17.86;38.83
26978;BME280;56314;48.088;11.642;2024-03-23T07:19:53;94360.47;;;18.03;38.57
26978;BME280;56314;48.088;11.642;2024-03-23T07:22:19;94353.53;;;17.87;38.78
26978;BME280;56314;48.088;11.642;2024-03-23T07:24:44;94357.22;;;16.98;40.45
26978;BME280;56314;48.088;11.642;2024-03-23T07:27:09;94368.50;;;16.23;41.62
26978;BME280;56314;48.088;11.642;2024-03-23T07:29:35;94364.88;;;15.78;44.41
26978;BME280;56314;48.088;11.642;2024-03-23T07:32:01;94370.00;;;15.48;43.64
26978;BME280;56314;48.088;11.642;2024-03-23T07:34:28;94372.75;;;15.31;43.97
26978;BME280;56314;48.088;11.642;2024-03-23T07:36:53;94378.25;;;15.53;45.04
26978;BME280;56314;48.088;11.642;2024-03-23T07:39:18;94394.13;;;15.84;44.80
26978;BME280;56314;48.088;11.642;2024-03-23T07:41:44;94391.41;;;16.54;43.59
26978;BME280;56314;48.088;11.642;2024-03-23T07:44:10;94404.59;;;16.48;42.96
26978;BME280;56314;48.088;11.642;2024-03-23T07:46:35;94412.09;;;16.21;44.25
26978;BME280;56314;48.088;11.642;2024-03-23T07:49:01;94425.03;;;15.92;44.83
26978;BME280;56314;48.088;11.642;2024-03-23T07:51:27;94437.38;;;15.68;45.34
26978;BME280;56314;48.088;11.642;2024-03-23T07:53:52;94459.06;;;15.16;47.20
26978;BME280;56314;48.088;11.642;2024-03-23T07:56:18;94472.88;;;14.78;49.38
26978;BME280;56314;48.088;11.642;2024-03-23T07:58:45;94489.84;;;14.34;52.34
26978;BME280;56314;48.088;11.642;2024-03-23T08:01:17;94515.00;;;13.95;55.33
26978;BME280;56314;48.088;11.642;2024-03-23T08:03:44;94507.94;;;13.53;57.12
26978;BME280;56314;48.088;11.642;2024-03-23T08:08:35;94534.69;;;12.79;61.85
26978;BME280;56314;48.088;11.642;2024-03-23T08:11:01;94539.97;;;12.61;64.09
26978;BME280;56314;48.088;11.642;2024-03-23T08:13:26;94548.94;;;12.32;66.51
26978;BME280;56314;48.088;11.642;2024-03-23T08:15:52;94547.88;;;12.07;68.87
26978;BME280;56314;48.088;11.642;2024-03-23T08:18:17;94558.66;;;11.76;71.38
26978;BME280;56314;48.088;11.642;2024-03-23T08:20:42;94556.84;;;11.48;75.16
26978;BME280;56314;48.088;11.642;2024-03-23T08:23:08;94566.16;;;11.33;76.54
26978;BME280;56314;48.088;11.642;2024-03-23T08:25:34;94584.91;;;11.10;78.82
26978;BME280;56314;48.088;11.642;2024-03-23T08:28:00;94589.09;;;10.83;83.23
26978;BME280;56314;48.088;11.642;2024-03-23T08:30:26;94597.69;;;10.66;86.78
26978;BME280;56314;48.088;11.642;2024-03-23T08:32:51;94604.31;;;10.50;88.85
26978;BME280;56314;48.088;11.642;2024-03-23T08:35:17;94604.53;;;10.27;90.63
26978;BME280;56314;48.088;11.642;2024-03-23T08:37:42;94604.66;;;10.16;93.13
26978;BME280;56314;48.088;11.642;2024-03-23T08:40:08;94602.84;;;10.07;94.67
26978;BME280;56314;48.088;11.642;2024-03-23T08:42:34;94620.47;;;9.95;96.75
26978;BME280;56314;48.088;11.642;2024-03-23T08:44:59;94647.25;;;9.89;98.04
26978;BME280;56314;48.088;11.642;2024-03-23T08:47:25;94660.25;;;9.69;95.68
26978;BME280;56314;48.088;11.642;2024-03-23T08:49:50;94655.47;;;9.43;94.36
26978;BME280;56314;48.088;11.642;2024-03-23T08:52:16;94659.50;;;9.26;97.26
26978;BME280;56314;48.088;11.642;2024-03-23T08:54:41;94676.25;;;9.14;97.48
26978;BME280;56314;48.088;11.642;2024-03-23T08:57:07;94679.75;;;9.03;98.23
26978;BME280;56314;48.088;11.642;2024-03-23T08:59:33;94692.25;;;8.99;99.15
26978;BME280;56314;48.088;11.642;2024-03-23T09:01:58;94697.94;;;8.83;97.03
26978;BME280;56314;48.088;11.642;2024-03-23T09:04:23;94705.19;;;8.80;99.47
26978;BME280;56314;48.088;11.642;2024-03-23T09:06:49;94715.56;;;8.70;99.13
26978;BME280;56314;48.088;11.642;2024-03-23T09:09:15;94709.13;;;8.74;100.00
26978;BME280;56314;48.088;11.642;2024-03-23T09:11:40;94724.50;;;8.67;100.00
26978;BME280;56314;48.088;11.642;2024-03-23T09:14:05;94724.97;;;8.72;100.00
26978;BME280;56314;48.088;11.642;2024-03-23T09:16:31;94724.16;;;8.72;100.00
26978;BME280;56314;48.088;11.642;2024-03-23T09:18:56;94710.06;;;8.73;100.00
26978;BME280;56314;48.088;11.642;2024-03-23T09:21:21;94717.69;;;8.76;100.00
26978;BME280;56314;48.088;11.642;2024-03-23T09:23:47;94710.78;;;8.75;100.00
26978;BME280;56314;48.088;11.642;2024-03-23T09:26:12;94722.91;;;8.76;100.00
26978;BME280;56314;48.088;11.642;2024-03-23T09:28:38;94717.69;;;8.76;100.00
26978;BME280;56314;48.088;11.642;2024-03-23T09:31:07;94711.13;;;8.82;100.00
26978;BME280;56314;48.088;11.642;2024-03-23T09:33:33;94725.16;;;8.81;100.00
26978;BME280;56314;48.088;11.642;2024-03-23T09:36:03;94727.06;;;8.78;100.00
26978;BME280;56314;48.088;11.642;2024-03-23T09:38:29;94733.53;;;8.74;100.00
26978;BME280;56314;48.088;11.642;2024-03-23T09:40:54;94728.66;;;8.70;100.00
26978;BME280;56314;48.088;11.642;2024-03-23T09:43:20;94747.09;;;8.68;100.00
26978;BME280;56314;48.088;11.642;2024-03-23T09:45:46;94756.41;;;8.61;100.00
26978;BME280;56314;48.088;11.642;2024-03-23T09:48:11;94762.25;;;8.53;99.40
26978;BME280;56314;48.088;11.642;2024-03-23T09:50:41;94779.09;;;8.38;94.06
26978;BME280;56314;48.088;11.642;2024-03-23T09:53:07;94767.13;;;8.24;93.90
26978;BME280;56314;48.088;11.642;2024-03-23T09:55:33;94779.03;;;8.05;93.87
26978;BME280;56314;48.088;11.642;2024-03-23T09:57:59;94787.19;;;7.89;94.36
26978;BME280;56314;48.088;11.642;2024-03-23T10:00:25;94803.72;;;7.90;97.79
26978;BME280;56314;48.088;11.642;2024-03-23T10:02:50;94792.19;;;7.92;99.02
26978;BME280;56314;48.088;11.642;2024-03-23T10:05:23;94799.44;;;7.89;96.42
26978;BME280;56314;48.088;11.642;2024-03-23T10:07:51;94801.81;;;7.92;97.48
26978;BME280;56314;48.088;11.642;2024-03-23T10:10:17;94802.75;;;7.91;98.10
26978;BME280;56314;48.088;11.642;2024-03-23T10:12:47;94810.84;;;7.88;99.07
26978;BME280;56314;48.088;11.642;2024-03-23T10:15:22;94820.69;;;7.84;100.00
26978;BME280;56314;48.088;11.642;2024-03-23T10:17:48;94816.03;;;7.76;99.36
26978;BME280;56314;48.088;11.642;2024-03-23T10:20:19;94812.34;;;7.79;99.67
26978;BME280;56314;48.088;11.642;2024-03-23T10:22:45;94805.00;;;7.84;99.83
26978;BME280;56314;48.088;11.642;2024-03-23T10:25:11;94809.16;;;7.86;100.00
26978;BME280;56314;48.088;11.642;2024-03-23T10:27:36;94815.63;;;7.94;100.00
26978;BME280;56314;48.088;11.642;2024-03-23T10:30:12;94805.97;;;7.83;96.61
26978;BME280;56314;48.088;11.642;2024-03-23T10:32:40;94816.53;;;7.81;97.29
26978;BME280;56314;48.088;11.642;2024-03-23T10:35:16;94815.81;;;7.79;96.92
26978;BME280;56314;48.088;11.642;2024-03-23T10:37:44;94824.69;;;7.77;97.55
26978;BME280;56314;48.088;11.642;2024-03-23T10:40:11;94817.84;;;7.76;97.81
26978;BME280;56314;48.088;11.642;2024-03-23T10:42:37;94824.09;;;7.73;97.44
26978;BME280;56314;48.088;11.642;2024-03-23T10:45:06;94823.28;;;7.73;96.96
26978;BME280;56314;48.088;11.642;2024-03-23T10:47:33;94841.69;;;7.71;97.63
26978;BME280;56314;48.088;11.642;2024-03-23T10:49:59;94837.06;;;7.75;99.41
26978;BME280;56314;48.088;11.642;2024-03-23T10:52:25;94867.72;;;7.73;97.25
26978;BME280;56314;48.088;11.642;2024-03-23T10:54:53;94874.41;;;7.52;94.70
26978;BME280;56314;48.088;11.642;2024-03-23T10:57:28;94876.38;;;7.37;95.59
26978;BME280;56314;48.088;11.642;2024-03-23T10:59:56;94881.28;;;7.29;95.06
26978;BME280;56314;48.088;11.642;2024-03-23T11:02:22;94886.78;;;7.13;93.41
26978;BME280;56314;48.088;11.642;2024-03-23T11:04:48;94895.25;;;7.17;93.71
26978;BME280;56314;48.088;11.642;2024-03-23T11:07:32;94882.84;;;7.07;93.76
26978;BME280;56314;48.088;11.642;2024-03-23T11:09:58;94885.38;;;7.09;94.10
26978;BME280;56314;48.088;11.642;2024-03-23T11:14:59;94899.63;;;7.16;93.78
26978;BME280;56314;48.088;11.642;2024-03-23T11:17:26;94900.25;;;7.20;93.97
26978;BME280;56314;48.088;11.642;2024-03-23T11:20:02;94891.25;;;7.24;94.40
26978;BME280;56314;48.088;11.642;2024-03-23T11:25:02;94901.66;;;7.37;94.84
26978;BME280;56314;48.088;11.642;2024-03-23T11:27:28;94904.22;;;7.50;95.03
26978;BME280;56314;48.088;11.642;2024-03-23T11:29:53;94893.31;;;7.56;93.99
26978;BME280;56314;48.088;11.642;2024-03-23T11:32:18;94875.91;;;7.68;94.77
26978;BME280;56314;48.088;11.642;2024-03-23T11:34:44;94872.72;;;7.76;92.76
26978;BME280;56314;48.088;11.642;2024-03-23T11:37:09;94864.56;;;7.92;93.25
26978;BME280;56314;48.088;11.642;2024-03-23T11:39:35;94869.69;;;8.05;93.91
26978;BME280;56314;48.088;11.642;2024-03-23T11:42:00;94884.19;;;7.97;90.42
26978;BME280;56314;48.088;11.642;2024-03-23T11:44:26;94876.31;;;7.86;90.50
26978;BME280;56314;48.088;11.642;2024-03-23T11:46:52;94890.66;;;7.80;90.85
26978;BME280;56314;48.088;11.642;2024-03-23T11:49:28;94880.31;;;7.79;89.23
26978;BME280;56314;48.088;11.642;2024-03-23T11:51:55;94871.28;;;7.72;88.74
26978;BME280;56314;48.088;11.642;2024-03-23T11:54:25;94884.00;;;7.76;88.28
26978;BME280;56314;48.088;11.642;2024-03-23T11:57:01;94865.22;;;7.82;89.44
26978;BME280;56314;48.088;11.642;2024-03-23T11:59:41;94865.50;;;7.91;89.45
26978;BME280;56314;48.088;11.642;2024-03-23T12:02:08;94879.91;;;7.96;89.04
26978;BME280;56314;48.088;11.642;2024-03-23T12:04:34;94871.34;;;8.06;87.76
26978;BME280;56314;48.088;11.642;2024-03-23T12:07:20;94885.53;;;8.14;88.02
26978;BME280;56314;48.088;11.642;2024-03-23T12:09:47;94886.34;;;8.15;85.85
26978;BME280;56314;48.088;11.642;2024-03-23T12:12:27;94877.22;;;8.32;87.15
26978;BME280;56314;48.088;11.642;2024-03-23T12:15:06;94871.75;;;8.35;84.00
26978;BME280;56314;48.088;11.642;2024-03-23T12:17:33;94866.75;;;8.32;83.11
26978;BME280;56314;48.088;11.642;2024-03-23T12:20:00;94864.75;;;8.36;86.09
26978;BME280;56314;48.088;11.642;2024-03-23T12:22:26;94838.91;;;8.42;87.30
26978;BME280;56314;48.088;11.642;2024-03-23T12:24:52;94854.63;;;8.42;86.92
26978;BME280;56314;48.088;11.642;2024-03-23T12:27:17;94861.66;;;8.42;85.01
26978;BME280;56314;48.088;11.642;2024-03-23T12:29:43;94872.34;;;8.39;82.58
26978;BME280;56314;48.088;11.642;2024-03-23T12:32:10;94857.84;;;8.23;83.64
26978;BME280;56314;48.088;11.642;2024-03-23T12:34:36;94857.13;;;8.32;84.76
26978;BME280;56314;48.088;11.642;2024-03-23T12:37:01;94850.59;;;8.38;84.77
26978;BME280;56314;48.088;11.642;2024-03-23T12:39:27;94841.91;;;8.38;83.42
26978;BME280;56314;48.088;11.642;2024-03-23T12:41:52;94838.69;;;8.34;83.22
26978;BME280;56314;48.088;11.642;2024-03-23T12:44:18;94843.47;;;8.29;83.36
26978;BME280;56314;48.088;11.642;2024-03-23T12:46:44;94855.56;;;8.30;83.04
26978;BME280;56314;48.088;11.642;2024-03-23T12:49:10;94855.69;;;8.28;82.93
26978;BME280;56314;48.088;11.642;2024-03-23T12:51:35;94866.38;;;8.25;81.49
26978;BME280;56314;48.088;11.642;2024-03-23T12:54:01;94857.47;;;8.16;83.88
26978;BME280;56314;48.088;11.642;2024-03-23T12:56:26;94868.06;;;8.38;84.21
26978;BME280;56314;48.088;11.642;2024-03-23T12:58:56;94869.66;;;8.63;81.68
26978;BME280;56314;48.088;11.642;2024-03-23T13:01:23;94859.75;;;8.89;81.14
26978;BME280;56314;48.088;11.642;2024-03-23T13:03:49;94860.56;;;9.13;78.51
26978;BME280;56314;48.088;11.642;2024-03-23T13:06:16;94865.97;;;9.32;75.53
26978;BME280;56314;48.088;11.642;2024-03-23T13:08:44;94863.53;;;9.40;76.44
26978;BME280;56314;48.088;11.642;2024-03-23T13:11:09;94852.53;;;9.58;72.97
26978;BME280;56314;48.088;11.642;2024-03-23T13:13:36;94852.69;;;9.45;69.55
26978;BME280;56314;48.088;11.642;2024-03-23T13:16:02;94847.34;;;9.47;71.82
26978;BME280;56314;48.088;11.642;2024-03-23T13:18:31;94849.53;;;9.30;67.35
26978;BME280;56314;48.088;11.642;2024-03-23T13:20:57;94840.28;;;9.26;69.66
26978;BME280;56314;48.088;11.642;2024-03-23T13:23:23;94835.19;;;9.13;63.03
26978;BME280;56314;48.088;11.642;2024-03-23T13:25:55;94834.63;;;8.98;64.10
26978;BME280;56314;48.088;11.642;2024-03-23T13:28:22;94833.81;;;8.86;62.12
26978;BME280;56314;48.088;11.642;2024-03-23T13:30:54;94833.94;;;8.85;63.21
26978;BME280;56314;48.088;11.642;2024-03-23T13:33:20;94823.69;;;8.82;61.77
26978;BME280;56314;48.088;11.642;2024-03-23T13:35:52;94824.78;;;8.79;61.02
26978;BME280;56314;48.088;11.642;2024-03-23T13:38:18;94823.13;;;8.78;59.55
26978;BME280;56314;48.088;11.642;2024-03-23T13:40:54;94830.50;;;8.73;59.93
26978;BME280;56314;48.088;11.642;2024-03-23T13:43:20;94824.53;;;8.82;60.75
26978;BME280;56314;48.088;11.642;2024-03-23T13:45:51;94826.06;;;8.96;59.58
26978;BME280;56314;48.088;11.642;2024-03-23T13:48:23;94836.66;;;8.95;60.58
26978;BME280;56314;48.088;11.642;2024-03-23T13:51:04;94836.31;;;8.88;59.58
26978;BME280;56314;48.088;11.642;2024-03-23T13:53:30;94838.09;;;8.76;61.64